Latest Coastal Weather Observations for Tasman Island

IDT60701

Issued at 1:42 pm EDT Tuesday 27 February 2024 (issued every 10 minutes, with the page automatically refreshed every 10 minutes)

About coastal observations | Map of coastal stations | Coastal observations for TAS | Marine services | Other Formats
Station Details ID: 094155 Name: TASMAN ISLAND Lat: -43.24 Lon: 148.00 Height: 240.0 m
Data from the previous 72 hours. | See also: Recent months at Tasman Island
Date/Time
EDT
Wind Sea
Height
m
Swell Vis
km
Cloud Weather Temp
°C
Press
MSL
hPa
Rain since
9am
mm
Dir  Spd
kts
Gust
kts
Height
m
Period
s
Dir
27/01:30pm NNE 9 14 - - - - - - - 18.5 1018.7 0.0
27/01:00pm NNE 6 13 - - - - - - - 19.6 1018.8 0.0
27/12:30pm NNE 7 12 - - - - - - - 18.4 1019.1 0.0
27/12:00pm NNE 5 9 - - - - - - - 19.0 1019.4 0.0
27/11:30am NNW 3 8 - - - - - - - 18.1 1019.6 0.0
27/11:00am NW 4 7 - - - - - - - 18.0 1019.6 0.0
27/10:30am WNW 4 7 - - - - - - - 17.7 1019.6 0.0
27/10:00am NW 5 8 - - - - - - - 17.6 1019.6 0.0
27/09:30am WNW 3 7 - - - - - - - 16.5 1019.6 0.0
27/09:00am NNW 5 9 - - - - - - - 15.9 1019.7 0.0
27/08:30am NW 5 10 - - - - - - - 14.7 1019.5 0.0
27/08:00am WNW 4 9 - - - - - - - 13.9 1019.4 0.0
27/07:30am N 9 15 - - - - - - - 13.3 1019.1 0.0
27/07:00am N 11 16 - - - - - - - 12.9 1018.8 0.0
27/06:30am N 14 20 - - - - - - - 13.0 1018.6 0.0
27/06:00am N 15 21 - - - - - - - 13.0 1018.5 0.0
27/05:30am N 17 24 - - - - - - - 13.1 1018.4 0.0
27/05:00am N 13 20 - - - - - - - 13.1 1018.7 0.0
27/04:30am N 13 18 - - - - - - - 13.1 1019.2 0.0
27/04:00am N 12 18 - - - - - - - 12.8 1019.5 0.0
27/03:30am NNE 8 11 - - - - - - - 12.8 1019.5 0.0
27/03:00am NNE 6 9 - - - - - - - 12.4 1019.7 0.0
27/02:30am NNE 6 11 - - - - - - - 12.2 1019.9 0.0
27/02:00am NW 4 6 - - - - - - - 12.4 1020.3 0.0
27/01:30am NNW 2 3 - - - - - - - 12.9 1020.6 0.0
27/01:00am NW 3 6 - - - - - - - 13.2 1020.9 0.0
27/12:30am WNW 4 10 - - - - - - - 13.3 1021.0 0.0
27/12:00am SW 4 11 - - - - - - - 13.2 1020.7 0.0
 
Date/Time
EDT
Wind Sea
Height
m
Swell Vis
km
Cloud Weather Temp
°C
Press
MSL
hPa
Rain since
9am
mm
Dir  Spd
kts
Gust
kts
Height
m
Period
s
Dir
26/11:30pm SSW 7 14 - - - - - - - 13.0 1020.8 0.0
26/11:00pm SSW 9 16 - - - - - - - 13.0 1020.9 0.0
26/10:30pm SSW 8 17 - - - - - - - 12.9 1020.9 0.0
26/10:00pm SSW 10 19 - - - - - - - 12.8 1020.7 0.0
26/09:30pm SSW 11 20 - - - - - - - 12.9 1020.3 0.0
26/09:00pm SSW 9 16 - - - - - - - 12.8 1020.3 0.0
26/08:30pm SSW 12 19 - - - - - - - 12.9 1019.8 0.0
26/08:00pm SSW 10 17 - - - - - - - 13.0 1019.8 0.0
26/07:30pm SSW 9 16 - - - - - - - 13.6 1019.6 0.0
26/07:00pm SSW 10 16 - - - - - - - 13.8 1019.3 0.0
26/06:30pm SSW 9 16 - - - - - - - 14.4 1019.0 0.0
26/06:00pm SSW 11 16 - - - - - - - 14.5 1019.0 0.0
26/05:30pm SSW 8 13 - - - - - - - 15.3 1019.0 0.0
26/05:00pm SW 13 21 - - - - - - - 15.5 1019.0 0.0
26/04:30pm SW 14 21 - - - - - - - 14.6 1019.0 0.0
26/04:00pm SW 15 21 - - - - - - - 15.0 1018.9 0.0
26/03:30pm SSW 15 26 - - - - - - - 14.1 1019.1 0.0
26/03:27pm SSW 15 26 - - - - - - - 14.2 1019.1 0.0
26/03:00pm SW 9 19 - - - - - - - 14.8 1019.2 0.0
26/02:30pm SW 12 25 - - - - - - - 13.9 1019.1 0.0
26/02:00pm SW 13 25 - - - - - - - 14.2 1019.0 0.0
26/01:30pm SW 10 21 - - - - - - - 14.0 1018.7 0.0
26/01:00pm SW 12 28 - - - - - - - 13.9 1018.5 0.0
26/12:31pm SSW 15 28 - - - - - - - 12.3 1018.4 0.0
26/12:30pm SSW 14 28 - - - - - - - 12.4 1018.4 0.0
26/12:01pm SSW 14 26 - - - - - - - 12.7 1018.5 0.0
26/12:00pm SW 13 24 - - - - - - - 12.5 1018.5 0.0
26/11:30am SW 19 31 - - - - - - - 12.2 1018.3 0.0
26/11:00am SSW 16 32 - - - - - - - 12.1 1018.1 0.0
26/10:30am SSW 16 29 - - - - - - - 12.7 1017.8 0.0
26/10:00am SSW 16 29 - - - - - - - 11.9 1017.2 0.0
26/09:30am SSW 19 32 - - - - - - - 11.9 1016.6 0.0
26/09:00am SSW 21 33 - - - - - - - 11.4 1016.2 0.2
26/08:30am SSW 21 38 - - - - - - - 11.2 1015.5 0.2
26/08:00am SSW 24 37 - - - - - - - 10.8 1014.9 0.2
26/07:30am SSW 21 39 - - - - - - - 10.7 1014.3 0.2
26/07:00am SSW 25 41 - - - - - - - 10.3 1013.8 0.2
26/06:30am SSW 23 40 - - - - - - - 9.9 1013.2 0.2
26/06:00am SW 18 36 - - - - - - - 10.3 1012.8 0.0
26/05:37am SSW 24 39 - - - - - - - 10.6 1012.3 0.0
26/05:35am SSW 24 39 - - - - - - - 10.6 1012.4 0.0
26/05:30am SSW 24 42 - - - - - - - 10.7 1012.3 0.0
26/05:00am SSW 29 48 - - - - - - - 10.8 1011.4 0.0
26/04:30am SSW 25 45 - - - - - - - 11.1 1010.8 0.0
26/04:00am SSW 26 49 - - - - - - - 11.1 1010.6 0.0
26/03:30am SSW 23 43 - - - - - - - 11.3 1009.3 0.0
26/03:00am SW 27 49 - - - - - - - 11.6 1009.3 0.0
26/02:30am SSW 24 45 - - - - - - - 11.5 1009.8 0.0
26/02:00am SSW 28 52 - - - - - - - 11.3 1009.2 0.0
26/01:53am SSW 24 52 - - - - - - - 11.6 1008.9 0.0
26/01:30am SSW 22 39 - - - - - - - 11.9 1008.8 0.0
26/01:00am SSW 25 47 - - - - - - - 12.7 1008.1 0.0
26/12:48am SSW 12 39 - - - - - - - 13.5 1007.8 0.0
26/12:30am E 5 15 - - - - - - - 15.1 1007.9 0.0
26/12:00am NE 5 13 - - - - - - - 15.1 1007.7 0.0
 
Date/Time
EDT
Wind Sea
Height
m
Swell Vis
km
Cloud Weather Temp
°C
Press
MSL
hPa
Rain since
9am
mm
Dir  Spd
kts
Gust
kts
Height
m
Period
s
Dir
25/11:30pm SE 7 21 - - - - - - - 16.3 1007.5 0.0
25/11:00pm WNW 7 17 - - - - - - - 16.6 1007.6 0.0
25/10:30pm W 5 13 - - - - - - - 16.5 1007.9 0.0
25/10:00pm W 5 14 - - - - - - - 16.8 1008.0 0.0
25/09:30pm W 6 15 - - - - - - - 17.0 1007.9 0.0
25/09:00pm WSW 5 12 - - - - - - - 16.9 1007.7 0.0
25/08:30pm W 5 14 - - - - - - - 17.0 1007.4 0.0
25/08:00pm WNW 7 15 - - - - - - - 16.6 1007.4 0.0
25/07:30pm WNW 9 15 - - - - - - - 16.4 1007.3 0.0
25/07:00pm N 4 9 - - - - - - - 15.3 1007.6 0.0
25/06:30pm NNE 3 5 - - - - - - - 15.4 1007.6 0.0
25/06:00pm WSW 4 7 - - - - - - - 17.4 1007.6 0.0
25/05:30pm SSE 3 6 - - - - - - - 16.4 1007.8 0.0
25/05:00pm S 2 5 - - - - - - - 16.9 1008.2 0.0
25/04:30pm S 4 7 - - - - - - - 16.5 1008.3 0.0
25/04:00pm SSW 4 7 - - - - - - - 16.8 1008.6 0.0
25/03:30pm S 6 11 - - - - - - - 16.4 1008.6 0.0
25/03:00pm S 6 10 - - - - - - - 16.6 1008.7 0.0
25/02:30pm SSW 7 10 - - - - - - - 16.2 1009.2 0.0
25/02:00pm SSW 5 7 - - - - - - - 16.3 1008.9 0.0
25/01:30pm S 8 14 - - - - - - - 15.9 1009.5 0.0
25/01:00pm WNW 6 12 - - - - - - - 17.0 1009.1 0.0
25/12:30pm NNW 10 17 - - - - - - - 16.7 1008.3 0.0
25/12:00pm NW 9 15 - - - - - - - 16.5 1010.1 0.0
25/11:30am NNW 9 16 - - - - - - - 16.1 1010.0 0.0
25/11:00am NW 7 11 - - - - - - - 16.4 1011.1 0.0
25/10:30am WNW 8 12 - - - - - - - 16.1 1011.9 0.0
25/10:00am WNW 7 11 - - - - - - - 15.9 1012.4 0.0
25/09:30am NNW 10 16 - - - - - - - 15.7 1012.3 0.0
25/09:00am WNW 6 9 - - - - - - - 15.7 1013.0 0.0
25/08:30am NNW 7 12 - - - - - - - 15.7 1012.7 0.0
25/08:00am NW 7 12 - - - - - - - 15.4 1012.6 0.0
25/07:30am NNW 6 12 - - - - - - - 14.9 1012.4 0.0
25/07:00am N 12 18 - - - - - - - 14.5 1011.8 0.0
25/06:30am N 13 23 - - - - - - - 14.5 1012.3 0.0
25/06:00am N 17 26 - - - - - - - 14.6 1012.6 0.0
25/05:30am N 15 22 - - - - - - - 14.4 1012.8 0.0
25/05:00am N 15 23 - - - - - - - 14.6 1012.8 0.0
25/04:41am NNW 15 25 - - - - - - - 14.3 1013.1 0.0
25/04:30am NNW 17 24 - - - - - - - 14.2 1013.1 0.0
25/04:08am N 17 28 - - - - - - - 14.3 1013.2 0.0
25/04:00am N 18 28 - - - - - - - 14.2 1013.2 0.0
25/03:30am N 20 27 - - - - - - - 14.2 1013.7 0.0
25/03:00am N 20 28 - - - - - - - 14.3 1013.9 0.0
25/02:35am N 24 34 - - - - - - - 14.5 1014.5 0.0
25/02:30am N 26 34 - - - - - - - 14.5 1014.6 0.0
25/02:09am N 28 38 - - - - - - - 14.7 1014.6 0.0
25/02:00am N 25 33 - - - - - - - 14.7 1014.7 0.0
25/01:30am N 23 31 - - - - - - - 14.6 1015.3 0.0
25/01:00am N 19 29 - - - - - - - 14.6 1016.1 0.0
25/12:30am NNE 19 29 - - - - - - - 14.4 1016.6 0.0
25/12:26am N 19 29 - - - - - - - 14.4 1016.6 0.0
25/12:00am NNE 19 27 - - - - - - - 14.5 1017.0 0.0
 
Date/Time
EDT
Wind Sea
Height
m
Swell Vis
km
Cloud Weather Temp
°C
Press
MSL
hPa
Rain since
9am
mm
Dir  Spd
kts
Gust
kts
Height
m
Period
s
Dir
24/11:43pm NNE 16 26 - - - - - - - 14.3 1017.2 0.0
24/11:30pm NNE 15 22 - - - - - - - 14.0 1017.5 0.0
24/11:00pm NNE 13 21 - - - - - - - 13.7 1018.2 0.0
24/10:30pm NNE 7 14 - - - - - - - 13.5 1018.7 0.0
24/10:00pm NE 5 11 - - - - - - - 13.3 1018.9 0.0
24/09:30pm NNE 4 7 - - - - - - - 13.1 1019.1 0.0
24/09:00pm ENE 3 4 - - - - - - - 12.5 1019.1 0.0
24/08:30pm SE 1 3 - - - - - - - 12.3 1019.1 0.0
24/08:00pm SSW 4 5 - - - - - - - 12.8 1019.1 0.0
24/07:30pm S 5 8 - - - - - - - 13.6 1019.0 0.0
24/07:00pm SSW 8 14 - - - - - - - 13.8 1018.9 0.0
24/06:30pm SSW 10 17 - - - - - - - 14.2 1018.7 0.0
24/06:00pm SSW 11 17 - - - - - - - 14.5 1018.7 0.0
24/05:30pm SSW 12 18 - - - - - - - 14.4 1018.6 0.0
24/05:00pm SSW 10 16 - - - - - - - 15.0 1018.8 0.0
24/04:30pm SSW 13 21 - - - - - - - 15.8 1018.9 0.0
24/04:00pm SSW 13 20 - - - - - - - 15.4 1018.9 0.0
24/03:30pm SSW 12 19 - - - - - - - 16.0 1018.9 0.0
24/03:00pm SSW 15 21 - - - - - - - 16.0 1019.0 0.0
24/02:30pm SSW 14 23 - - - - - - - 15.4 1018.8 0.0
24/02:00pm SSW 15 25 - - - - - - - 14.9 1018.7 0.0

Other formats

Comma delimited format used in spreadsheet applications
http://www.bom.gov.au/fwo/IDT60701/IDT60701.95986.axf

JavaScript Object Notation format (JSON) in row-major order
http://www.bom.gov.au/fwo/IDT60701/IDT60701.95986.json

Data quality

Most of these data are generated automatically and are frequently updated. Quality checks on data are not normally performed. It is possible for incorrect values to appear. Refer to information at About Latest Weather Observations and please check the disclaimer before using these data.